sensor_id;sensor_type;location;lat;lon;timestamp;temperature;humidity
40253;DHT22;25972;51.854;4.534;2023-05-07T00:01:59;14.70;99.90
40253;DHT22;25972;51.854;4.534;2023-05-07T00:04:25;14.70;99.90
40253;DHT22;25972;51.854;4.534;2023-05-07T00:06:51;14.70;99.90
40253;DHT22;25972;51.854;4.534;2023-05-07T00:09:17;14.70;99.90
40253;DHT22;25972;51.854;4.534;2023-05-07T00:11:42;14.70;99.90
40253;DHT22;25972;51.854;4.534;2023-05-07T00:14:08;14.70;99.90
40253;DHT22;25972;51.854;4.534;2023-05-07T00:16:34;14.70;99.90
40253;DHT22;25972;51.854;4.534;2023-05-07T00:19:00;14.70;99.90
40253;DHT22;25972;51.854;4.534;2023-05-07T00:21:25;14.70;99.90
40253;DHT22;25972;51.854;4.534;2023-05-07T00:23:53;14.70;99.90
40253;DHT22;25972;51.854;4.534;2023-05-07T00:26:18;14.70;99.90
40253;DHT22;25972;51.854;4.534;2023-05-07T00:28:47;14.70;99.90
40253;DHT22;25972;51.854;4.534;2023-05-07T00:31:12;14.70;99.90
40253;DHT22;25972;51.854;4.534;2023-05-07T00:33:38;14.70;99.90
40253;DHT22;25972;51.854;4.534;2023-05-07T00:36:05;14.70;99.90
40253;DHT22;25972;51.854;4.534;2023-05-07T00:38:31;14.70;99.90
40253;DHT22;25972;51.854;4.534;2023-05-07T00:40:57;14.70;99.90
40253;DHT22;25972;51.854;4.534;2023-05-07T00:43:23;14.70;99.90
40253;DHT22;25972;51.854;4.534;2023-05-07T00:45:48;14.70;99.90
40253;DHT22;25972;51.854;4.534;2023-05-07T00:48:14;14.70;99.90
40253;DHT22;25972;51.854;4.534;2023-05-07T00:50:40;14.70;99.90
40253;DHT22;25972;51.854;4.534;2023-05-07T00:53:06;14.70;99.90
40253;DHT22;25972;51.854;4.534;2023-05-07T00:55:33;14.60;99.90
40253;DHT22;25972;51.854;4.534;2023-05-07T00:57:59;14.70;99.90
40253;DHT22;25972;51.854;4.534;2023-05-07T01:00:25;14.70;99.90
40253;DHT22;25972;51.854;4.534;2023-05-07T01:02:51;14.60;99.90
40253;DHT22;25972;51.854;4.534;2023-05-07T01:05:18;14.60;99.90
40253;DHT22;25972;51.854;4.534;2023-05-07T01:07:44;14.70;99.90
40253;DHT22;25972;51.854;4.534;2023-05-07T01:10:11;14.60;99.90
40253;DHT22;25972;51.854;4.534;2023-05-07T01:12:39;14.60;99.90
40253;DHT22;25972;51.854;4.534;2023-05-07T01:15:06;14.70;99.90
40253;DHT22;25972;51.854;4.534;2023-05-07T01:17:37;14.70;99.90
40253;DHT22;25972;51.854;4.534;2023-05-07T01:20:06;14.70;99.90
40253;DHT22;25972;51.854;4.534;2023-05-07T01:22:34;14.70;99.90
40253;DHT22;25972;51.854;4.534;2023-05-07T01:25:02;14.70;99.90
40253;DHT22;25972;51.854;4.534;2023-05-07T01:27:30;14.70;99.90
40253;DHT22;25972;51.854;4.534;2023-05-07T01:29:56;14.70;99.90
40253;DHT22;25972;51.854;4.534;2023-05-07T01:32:40;14.70;99.90
40253;DHT22;25972;51.854;4.534;2023-05-07T01:35:11;14.70;99.90
40253;DHT22;25972;51.854;4.534;2023-05-07T01:37:38;14.70;99.90
40253;DHT22;25972;51.854;4.534;2023-05-07T01:40:05;14.70;99.90
40253;DHT22;25972;51.854;4.534;2023-05-07T01:42:32;14.70;99.90
40253;DHT22;25972;51.854;4.534;2023-05-07T01:44:59;14.70;99.90
40253;DHT22;25972;51.854;4.534;2023-05-07T01:47:25;14.70;99.90
40253;DHT22;25972;51.854;4.534;2023-05-07T01:49:52;14.70;99.90
40253;DHT22;25972;51.854;4.534;2023-05-07T01:52:18;14.70;99.90
40253;DHT22;25972;51.854;4.534;2023-05-07T01:54:44;14.70;99.90
40253;DHT22;25972;51.854;4.534;2023-05-07T01:57:10;14.70;99.90
40253;DHT22;25972;51.854;4.534;2023-05-07T01:59:37;14.70;99.90
40253;DHT22;25972;51.854;4.534;2023-05-07T02:02:03;14.70;99.90
40253;DHT22;25972;51.854;4.534;2023-05-07T02:04:30;14.70;99.90
40253;DHT22;25972;51.854;4.534;2023-05-07T02:06:56;14.70;99.90
40253;DHT22;25972;51.854;4.534;2023-05-07T02:09:23;14.70;99.90
40253;DHT22;25972;51.854;4.534;2023-05-07T02:11:50;14.70;99.90
40253;DHT22;25972;51.854;4.534;2023-05-07T02:14:17;14.70;99.90
40253;DHT22;25972;51.854;4.534;2023-05-07T02:16:45;14.70;99.90
40253;DHT22;25972;51.854;4.534;2023-05-07T02:19:13;14.70;99.90
40253;DHT22;25972;51.854;4.534;2023-05-07T02:21:38;14.70;99.90
40253;DHT22;25972;51.854;4.534;2023-05-07T02:24:05;14.70;99.90
40253;DHT22;25972;51.854;4.534;2023-05-07T02:26:31;14.70;99.90
40253;DHT22;25972;51.854;4.534;2023-05-07T02:28:57;14.70;99.90
40253;DHT22;25972;51.854;4.534;2023-05-07T02:31:22;14.70;99.90
40253;DHT22;25972;51.854;4.534;2023-05-07T02:33:48;14.70;99.90
40253;DHT22;25972;51.854;4.534;2023-05-07T02:36:15;14.70;99.90
40253;DHT22;25972;51.854;4.534;2023-05-07T02:38:47;14.70;99.90
40253;DHT22;25972;51.854;4.534;2023-05-07T02:41:13;14.70;99.90
40253;DHT22;25972;51.854;4.534;2023-05-07T02:43:39;14.70;99.90
40253;DHT22;25972;51.854;4.534;2023-05-07T02:46:06;14.70;99.90
40253;DHT22;25972;51.854;4.534;2023-05-07T02:48:35;14.70;99.90
40253;DHT22;25972;51.854;4.534;2023-05-07T02:51:02;14.70;99.90
40253;DHT22;25972;51.854;4.534;2023-05-07T02:53:29;14.70;99.90
40253;DHT22;25972;51.854;4.534;2023-05-07T02:55:56;14.70;99.90
40253;DHT22;25972;51.854;4.534;2023-05-07T02:58:22;14.70;99.90
40253;DHT22;25972;51.854;4.534;2023-05-07T03:00:48;14.70;99.90
40253;DHT22;25972;51.854;4.534;2023-05-07T03:03:28;14.70;99.90
40253;DHT22;25972;51.854;4.534;2023-05-07T03:05:54;14.70;99.90
40253;DHT22;25972;51.854;4.534;2023-05-07T03:08:20;14.70;99.90
40253;DHT22;25972;51.854;4.534;2023-05-07T03:10:46;14.70;99.90
40253;DHT22;25972;51.854;4.534;2023-05-07T03:13:12;14.70;99.90
40253;DHT22;25972;51.854;4.534;2023-05-07T03:15:38;14.70;99.90
40253;DHT22;25972;51.854;4.534;2023-05-07T03:18:04;14.70;99.90
40253;DHT22;25972;51.854;4.534;2023-05-07T03:20:29;14.80;99.90
40253;DHT22;25972;51.854;4.534;2023-05-07T03:22:56;14.70;99.90
40253;DHT22;25972;51.854;4.534;2023-05-07T03:25:21;14.70;99.90
40253;DHT22;25972;51.854;4.534;2023-05-07T03:27:47;14.70;99.90
40253;DHT22;25972;51.854;4.534;2023-05-07T03:30:13;14.80;99.90
40253;DHT22;25972;51.854;4.534;2023-05-07T03:32:41;14.70;99.90
40253;DHT22;25972;51.854;4.534;2023-05-07T03:35:10;14.70;99.90
40253;DHT22;25972;51.854;4.534;2023-05-07T03:37:37;14.70;99.90
40253;DHT22;25972;51.854;4.534;2023-05-07T03:40:04;14.70;99.90
40253;DHT22;25972;51.854;4.534;2023-05-07T03:42:36;14.70;99.90
40253;DHT22;25972;51.854;4.534;2023-05-07T03:45:02;14.70;99.90
40253;DHT22;25972;51.854;4.534;2023-05-07T03:47:29;14.70;99.90
40253;DHT22;25972;51.854;4.534;2023-05-07T03:49:55;14.70;99.90
40253;DHT22;25972;51.854;4.534;2023-05-07T03:52:23;14.70;99.90
40253;DHT22;25972;51.854;4.534;2023-05-07T03:54:53;14.70;99.90
40253;DHT22;25972;51.854;4.534;2023-05-07T03:57:20;14.70;99.90
40253;DHT22;25972;51.854;4.534;2023-05-07T03:59:46;14.70;99.90
40253;DHT22;25972;51.854;4.534;2023-05-07T04:02:12;14.70;99.90
40253;DHT22;25972;51.854;4.534;2023-05-07T04:04:38;14.70;99.90
40253;DHT22;25972;51.854;4.534;2023-05-07T04:07:04;14.70;99.90
40253;DHT22;25972;51.854;4.534;2023-05-07T04:09:36;14.70;99.90
40253;DHT22;25972;51.854;4.534;2023-05-07T04:12:01;14.70;99.90
40253;DHT22;25972;51.854;4.534;2023-05-07T04:14:27;14.70;99.90
40253;DHT22;25972;51.854;4.534;2023-05-07T04:16:53;14.70;99.90
40253;DHT22;25972;51.854;4.534;2023-05-07T04:19:19;14.70;99.90
40253;DHT22;25972;51.854;4.534;2023-05-07T04:21:48;14.70;99.90
40253;DHT22;25972;51.854;4.534;2023-05-07T04:24:13;14.70;99.90
40253;DHT22;25972;51.854;4.534;2023-05-07T04:26:39;14.70;99.90
40253;DHT22;25972;51.854;4.534;2023-05-07T04:29:06;14.70;99.90
40253;DHT22;25972;51.854;4.534;2023-05-07T04:31:33;14.70;99.90
40253;DHT22;25972;51.854;4.534;2023-05-07T04:33:59;14.70;99.90
40253;DHT22;25972;51.854;4.534;2023-05-07T04:36:25;14.60;99.90
40253;DHT22;25972;51.854;4.534;2023-05-07T04:39:02;14.70;99.90
40253;DHT22;25972;51.854;4.534;2023-05-07T04:41:28;14.70;99.90
40253;DHT22;25972;51.854;4.534;2023-05-07T04:43:55;14.70;99.90
40253;DHT22;25972;51.854;4.534;2023-05-07T04:46:23;14.70;99.90
40253;DHT22;25972;51.854;4.534;2023-05-07T04:48:50;14.70;99.90
40253;DHT22;25972;51.854;4.534;2023-05-07T04:51:15;14.70;99.90
40253;DHT22;25972;51.854;4.534;2023-05-07T04:53:41;14.70;99.90
40253;DHT22;25972;51.854;4.534;2023-05-07T04:56:08;14.70;99.90
40253;DHT22;25972;51.854;4.534;2023-05-07T04:58:39;14.70;99.90
40253;DHT22;25972;51.854;4.534;2023-05-07T05:01:05;14.80;99.90
40253;DHT22;25972;51.854;4.534;2023-05-07T05:03:33;14.70;99.90
40253;DHT22;25972;51.854;4.534;2023-05-07T05:05:59;14.80;99.90
40253;DHT22;25972;51.854;4.534;2023-05-07T05:08:27;14.80;99.90
40253;DHT22;25972;51.854;4.534;2023-05-07T05:10:56;14.80;99.90
40253;DHT22;25972;51.854;4.534;2023-05-07T05:13:21;14.80;99.90
40253;DHT22;25972;51.854;4.534;2023-05-07T05:15:47;14.80;99.90
40253;DHT22;25972;51.854;4.534;2023-05-07T05:18:14;14.90;99.90
40253;DHT22;25972;51.854;4.534;2023-05-07T05:20:39;14.90;99.90
40253;DHT22;25972;51.854;4.534;2023-05-07T05:23:07;14.90;99.90
40253;DHT22;25972;51.854;4.534;2023-05-07T05:25:33;14.90;99.90
40253;DHT22;25972;51.854;4.534;2023-05-07T05:27:59;14.90;99.90
40253;DHT22;25972;51.854;4.534;2023-05-07T05:30:25;15.00;99.90
40253;DHT22;25972;51.854;4.534;2023-05-07T05:32:51;15.00;99.90
40253;DHT22;25972;51.854;4.534;2023-05-07T05:35:17;15.10;99.90
40253;DHT22;25972;51.854;4.534;2023-05-07T05:37:43;15.10;99.90
40253;DHT22;25972;51.854;4.534;2023-05-07T05:40:09;15.10;99.90
40253;DHT22;25972;51.854;4.534;2023-05-07T05:42:35;15.10;99.90
40253;DHT22;25972;51.854;4.534;2023-05-07T05:45:02;15.20;99.90
40253;DHT22;25972;51.854;4.534;2023-05-07T05:47:30;15.20;99.90
40253;DHT22;25972;51.854;4.534;2023-05-07T05:49:56;15.20;99.90
40253;DHT22;25972;51.854;4.534;2023-05-07T05:52:22;15.20;99.90
40253;DHT22;25972;51.854;4.534;2023-05-07T05:54:50;15.20;99.90
40253;DHT22;25972;51.854;4.534;2023-05-07T05:57:16;15.20;99.90
40253;DHT22;25972;51.854;4.534;2023-05-07T05:59:44;15.20;99.90
40253;DHT22;25972;51.854;4.534;2023-05-07T06:02:10;15.20;99.90
40253;DHT22;25972;51.854;4.534;2023-05-07T06:04:36;15.20;99.90
40253;DHT22;25972;51.854;4.534;2023-05-07T06:07:03;15.20;99.90
40253;DHT22;25972;51.854;4.534;2023-05-07T06:09:29;15.20;99.90
40253;DHT22;25972;51.854;4.534;2023-05-07T06:11:54;15.30;99.90
40253;DHT22;25972;51.854;4.534;2023-05-07T06:14:21;15.20;99.90
40253;DHT22;25972;51.854;4.534;2023-05-07T06:16:46;15.30;99.90
40253;DHT22;25972;51.854;4.534;2023-05-07T06:19:12;15.20;99.90
40253;DHT22;25972;51.854;4.534;2023-05-07T06:21:39;15.30;99.90
40253;DHT22;25972;51.854;4.534;2023-05-07T06:24:06;15.30;99.90
40253;DHT22;25972;51.854;4.534;2023-05-07T06:26:32;15.40;99.90
40253;DHT22;25972;51.854;4.534;2023-05-07T06:28:58;15.40;99.90
40253;DHT22;25972;51.854;4.534;2023-05-07T06:31:29;15.40;99.90
40253;DHT22;25972;51.854;4.534;2023-05-07T06:34:03;15.50;99.90
40253;DHT22;25972;51.854;4.534;2023-05-07T06:36:34;15.60;99.90
40253;DHT22;25972;51.854;4.534;2023-05-07T06:39:04;15.60;99.90
40253;DHT22;25972;51.854;4.534;2023-05-07T06:41:30;15.70;99.90
40253;DHT22;25972;51.854;4.534;2023-05-07T06:44:01;15.70;99.90
40253;DHT22;25972;51.854;4.534;2023-05-07T06:46:35;15.80;99.90
40253;DHT22;25972;51.854;4.534;2023-05-07T06:49:03;15.90;99.90
40253;DHT22;25972;51.854;4.534;2023-05-07T06:51:29;16.10;99.90
40253;DHT22;25972;51.854;4.534;2023-05-07T06:53:59;16.30;99.90
40253;DHT22;25972;51.854;4.534;2023-05-07T06:56:26;16.40;99.90
40253;DHT22;25972;51.854;4.534;2023-05-07T06:58:53;16.50;99.90
40253;DHT22;25972;51.854;4.534;2023-05-07T07:01:19;16.50;99.90
40253;DHT22;25972;51.854;4.534;2023-05-07T07:03:45;16.70;99.90
40253;DHT22;25972;51.854;4.534;2023-05-07T07:06:11;16.90;99.90
40253;DHT22;25972;51.854;4.534;2023-05-07T07:08:37;17.00;99.90
40253;DHT22;25972;51.854;4.534;2023-05-07T07:11:05;16.90;99.90
40253;DHT22;25972;51.854;4.534;2023-05-07T07:13:31;17.00;99.90
40253;DHT22;25972;51.854;4.534;2023-05-07T07:15:58;16.90;99.90
40253;DHT22;25972;51.854;4.534;2023-05-07T07:18:24;17.00;99.90
40253;DHT22;25972;51.854;4.534;2023-05-07T07:20:51;16.90;99.90
40253;DHT22;25972;51.854;4.534;2023-05-07T07:23:18;16.80;99.90
40253;DHT22;25972;51.854;4.534;2023-05-07T07:25:44;16.80;99.90
40253;DHT22;25972;51.854;4.534;2023-05-07T07:28:10;16.70;99.90
40253;DHT22;25972;51.854;4.534;2023-05-07T07:30:38;16.70;99.90
40253;DHT22;25972;51.854;4.534;2023-05-07T07:33:07;16.80;99.90
40253;DHT22;25972;51.854;4.534;2023-05-07T07:35:36;16.80;99.90
40253;DHT22;25972;51.854;4.534;2023-05-07T07:38:04;16.90;99.90
40253;DHT22;25972;51.854;4.534;2023-05-07T07:40:39;17.10;99.90
40253;DHT22;25972;51.854;4.534;2023-05-07T07:43:07;17.30;99.90
40253;DHT22;25972;51.854;4.534;2023-05-07T07:45:34;17.50;99.90
40253;DHT22;25972;51.854;4.534;2023-05-07T07:48:00;17.80;99.90
40253;DHT22;25972;51.854;4.534;2023-05-07T07:50:27;17.90;99.90
40253;DHT22;25972;51.854;4.534;2023-05-07T07:52:52;17.90;99.90
40253;DHT22;25972;51.854;4.534;2023-05-07T07:55:20;18.00;99.90
40253;DHT22;25972;51.854;4.534;2023-05-07T07:57:49;18.20;99.90
40253;DHT22;25972;51.854;4.534;2023-05-07T08:00:16;18.30;99.90
40253;DHT22;25972;51.854;4.534;2023-05-07T08:02:51;18.50;99.90
40253;DHT22;25972;51.854;4.534;2023-05-07T08:05:24;18.70;99.90
40253;DHT22;25972;51.854;4.534;2023-05-07T08:07:51;19.00;99.90
40253;DHT22;25972;51.854;4.534;2023-05-07T08:10:21;19.20;99.90
40253;DHT22;25972;51.854;4.534;2023-05-07T08:12:51;19.40;99.90
40253;DHT22;25972;51.854;4.534;2023-05-07T08:15:17;19.60;99.90
40253;DHT22;25972;51.854;4.534;2023-05-07T08:17:43;19.70;99.90
40253;DHT22;25972;51.854;4.534;2023-05-07T08:20:10;20.00;99.90
40253;DHT22;25972;51.854;4.534;2023-05-07T08:22:37;20.00;99.90
40253;DHT22;25972;51.854;4.534;2023-05-07T08:25:03;19.70;99.90
40253;DHT22;25972;51.854;4.534;2023-05-07T08:27:29;19.50;99.90
40253;DHT22;25972;51.854;4.534;2023-05-07T08:29:55;19.30;99.90
40253;DHT22;25972;51.854;4.534;2023-05-07T08:32:22;19.10;99.90
40253;DHT22;25972;51.854;4.534;2023-05-07T08:34:48;19.20;99.90
40253;DHT22;25972;51.854;4.534;2023-05-07T08:37:14;18.90;99.90
40253;DHT22;25972;51.854;4.534;2023-05-07T08:39:40;19.00;99.90
40253;DHT22;25972;51.854;4.534;2023-05-07T08:42:12;19.20;99.90
40253;DHT22;25972;51.854;4.534;2023-05-07T08:44:45;19.40;99.90
40253;DHT22;25972;51.854;4.534;2023-05-07T08:47:13;19.70;99.90
40253;DHT22;25972;51.854;4.534;2023-05-07T08:49:40;20.10;99.90
40253;DHT22;25972;51.854;4.534;2023-05-07T08:52:07;20.40;99.90
40253;DHT22;25972;51.854;4.534;2023-05-07T08:54:33;20.60;99.90
40253;DHT22;25972;51.854;4.534;2023-05-07T08:57:01;20.70;99.90
40253;DHT22;25972;51.854;4.534;2023-05-07T08:59:32;20.80;99.90
40253;DHT22;25972;51.854;4.534;2023-05-07T09:01:59;21.20;99.90
40253;DHT22;25972;51.854;4.534;2023-05-07T09:04:25;21.40;99.90
40253;DHT22;25972;51.854;4.534;2023-05-07T09:06:51;21.60;99.90
40253;DHT22;25972;51.854;4.534;2023-05-07T09:09:19;21.60;99.90
40253;DHT22;25972;51.854;4.534;2023-05-07T09:11:48;21.90;99.90
40253;DHT22;25972;51.854;4.534;2023-05-07T09:14:18;22.10;99.90
40253;DHT22;25972;51.854;4.534;2023-05-07T09:16:52;22.30;99.90
40253;DHT22;25972;51.854;4.534;2023-05-07T09:19:24;22.10;99.90
40253;DHT22;25972;51.854;4.534;2023-05-07T09:22:01;22.30;99.90
40253;DHT22;25972;51.854;4.534;2023-05-07T09:24:32;22.50;99.90
40253;DHT22;25972;51.854;4.534;2023-05-07T09:27:03;22.30;99.90
40253;DHT22;25972;51.854;4.534;2023-05-07T09:29:30;22.40;99.90
40253;DHT22;25972;51.854;4.534;2023-05-07T09:32:02;22.50;99.90
40253;DHT22;25972;51.854;4.534;2023-05-07T09:34:29;22.60;99.90
40253;DHT22;25972;51.854;4.534;2023-05-07T09:36:58;22.70;99.90
40253;DHT22;25972;51.854;4.534;2023-05-07T09:39:24;22.40;99.90
40253;DHT22;25972;51.854;4.534;2023-05-07T09:41:51;22.60;99.90
40253;DHT22;25972;51.854;4.534;2023-05-07T09:44:25;22.70;99.90
40253;DHT22;25972;51.854;4.534;2023-05-07T09:46:54;22.90;99.90
40253;DHT22;25972;51.854;4.534;2023-05-07T09:49:29;23.00;99.90
40253;DHT22;25972;51.854;4.534;2023-05-07T09:52:01;22.90;99.90
40253;DHT22;25972;51.854;4.534;2023-05-07T09:54:31;23.00;99.90
40253;DHT22;25972;51.854;4.534;2023-05-07T09:57:01;23.00;99.90
40253;DHT22;25972;51.854;4.534;2023-05-07T09:59:32;23.00;99.90
40253;DHT22;25972;51.854;4.534;2023-05-07T10:02:01;23.10;98.80
40253;DHT22;25972;51.854;4.534;2023-05-07T10:04:31;23.20;99.90
40253;DHT22;25972;51.854;4.534;2023-05-07T10:06:59;23.40;99.90
40253;DHT22;25972;51.854;4.534;2023-05-07T10:09:26;23.40;91.60
40253;DHT22;25972;51.854;4.534;2023-05-07T10:11:53;23.60;91.50
40253;DHT22;25972;51.854;4.534;2023-05-07T10:14:21;23.80;88.60
40253;DHT22;25972;51.854;4.534;2023-05-07T10:16:47;24.00;83.90
40253;DHT22;25972;51.854;4.534;2023-05-07T10:19:16;24.00;49.60
40253;DHT22;25972;51.854;4.534;2023-05-07T10:21:54;23.70;18.20
40253;DHT22;25972;51.854;4.534;2023-05-07T10:24:29;23.90;23.10
40253;DHT22;25972;51.854;4.534;2023-05-07T10:26:59;23.90;20.80
40253;DHT22;25972;51.854;4.534;2023-05-07T10:32:26;23.90;11.10
40253;DHT22;25972;51.854;4.534;2023-05-07T10:34:58;23.70;10.60
40253;DHT22;25972;51.854;4.534;2023-05-07T10:37:26;23.70;7.80
40253;DHT22;25972;51.854;4.534;2023-05-07T10:39:52;23.50;3.10
40253;DHT22;25972;51.854;4.534;2023-05-07T10:42:19;22.90;1.00
40253;DHT22;25972;51.854;4.534;2023-05-07T10:44:49;22.80;1.00
40253;DHT22;25972;51.854;4.534;2023-05-07T10:47:22;22.80;1.00
40253;DHT22;25972;51.854;4.534;2023-05-07T10:52:24;22.80;1.00
40253;DHT22;25972;51.854;4.534;2023-05-07T10:57:50;22.90;1.00
40253;DHT22;25972;51.854;4.534;2023-05-07T11:05:33;22.90;1.80
40253;DHT22;25972;51.854;4.534;2023-05-07T11:08:15;22.80;1.00
40253;DHT22;25972;51.854;4.534;2023-05-07T11:11:10;22.80;1.00
40253;DHT22;25972;51.854;4.534;2023-05-07T11:13:50;22.90;1.00
40253;DHT22;25972;51.854;4.534;2023-05-07T11:16:25;22.90;1.00
40253;DHT22;25972;51.854;4.534;2023-05-07T11:19:10;22.90;1.00
40253;DHT22;25972;51.854;4.534;2023-05-07T11:21:41;22.70;1.00
40253;DHT22;25972;51.854;4.534;2023-05-07T11:24:40;22.60;1.00
40253;DHT22;25972;51.854;4.534;2023-05-07T11:27:08;22.60;1.00
40253;DHT22;25972;51.854;4.534;2023-05-07T11:29:34;22.50;1.00
40253;DHT22;25972;51.854;4.534;2023-05-07T11:32:12;22.50;1.00
40253;DHT22;25972;51.854;4.534;2023-05-07T11:34:45;22.40;1.00
40253;DHT22;25972;51.854;4.534;2023-05-07T11:37:17;22.40;1.00
40253;DHT22;25972;51.854;4.534;2023-05-07T11:39:51;22.40;1.00
40253;DHT22;25972;51.854;4.534;2023-05-07T11:42:31;22.20;1.00
40253;DHT22;25972;51.854;4.534;2023-05-07T11:44:58;21.90;1.00
40253;DHT22;25972;51.854;4.534;2023-05-07T11:47:24;21.90;1.00
40253;DHT22;25972;51.854;4.534;2023-05-07T11:49:54;21.80;2.90
40253;DHT22;25972;51.854;4.534;2023-05-07T11:52:21;21.70;11.30
40253;DHT22;25972;51.854;4.534;2023-05-07T11:54:51;21.80;17.50
40253;DHT22;25972;51.854;4.534;2023-05-07T11:57:18;22.00;21.40
40253;DHT22;25972;51.854;4.534;2023-05-07T11:59:44;22.00;16.90
40253;DHT22;25972;51.854;4.534;2023-05-07T12:02:10;22.00;14.90
40253;DHT22;25972;51.854;4.534;2023-05-07T12:04:38;22.10;14.50
40253;DHT22;25972;51.854;4.534;2023-05-07T12:07:04;22.10;14.40
40253;DHT22;25972;51.854;4.534;2023-05-07T12:09:32;21.80;3.50
40253;DHT22;25972;51.854;4.534;2023-05-07T12:12:03;21.70;4.60
40253;DHT22;25972;51.854;4.534;2023-05-07T12:14:29;21.70;8.30
40253;DHT22;25972;51.854;4.534;2023-05-07T12:16:56;21.60;11.60
40253;DHT22;25972;51.854;4.534;2023-05-07T12:19:22;21.60;13.40
40253;DHT22;25972;51.854;4.534;2023-05-07T12:21:48;21.60;15.40
40253;DHT22;25972;51.854;4.534;2023-05-07T12:24:14;21.70;17.70
40253;DHT22;25972;51.854;4.534;2023-05-07T12:26:41;21.60;17.90
40253;DHT22;25972;51.854;4.534;2023-05-07T12:29:07;21.60;15.30
40253;DHT22;25972;51.854;4.534;2023-05-07T12:31:33;21.60;16.20
40253;DHT22;25972;51.854;4.534;2023-05-07T12:33:59;21.60;18.90
40253;DHT22;25972;51.854;4.534;2023-05-07T12:36:25;21.70;22.90
40253;DHT22;25972;51.854;4.534;2023-05-07T12:38:51;21.70;26.10
40253;DHT22;25972;51.854;4.534;2023-05-07T12:41:17;21.60;29.70
40253;DHT22;25972;51.854;4.534;2023-05-07T12:43:44;21.60;38.40
40253;DHT22;25972;51.854;4.534;2023-05-07T12:46:11;21.60;39.40
40253;DHT22;25972;51.854;4.534;2023-05-07T12:48:44;21.50;36.90
40253;DHT22;25972;51.854;4.534;2023-05-07T12:51:11;21.40;37.70
40253;DHT22;25972;51.854;4.534;2023-05-07T12:53:42;21.40;44.70
40253;DHT22;25972;51.854;4.534;2023-05-07T12:56:10;21.40;41.40
40253;DHT22;25972;51.854;4.534;2023-05-07T12:58:36;21.30;39.10
40253;DHT22;25972;51.854;4.534;2023-05-07T13:01:06;21.30;38.20
40253;DHT22;25972;51.854;4.534;2023-05-07T13:03:35;21.10;33.20
40253;DHT22;25972;51.854;4.534;2023-05-07T13:06:04;21.10;39.90
40253;DHT22;25972;51.854;4.534;2023-05-07T13:08:33;21.10;51.40
40253;DHT22;25972;51.854;4.534;2023-05-07T13:11:01;21.00;61.60
40253;DHT22;25972;51.854;4.534;2023-05-07T13:13:30;21.00;69.40
40253;DHT22;25972;51.854;4.534;2023-05-07T13:15:56;20.90;72.50
40253;DHT22;25972;51.854;4.534;2023-05-07T13:18:22;20.90;81.30
40253;DHT22;25972;51.854;4.534;2023-05-07T13:20:48;20.80;90.60
40253;DHT22;25972;51.854;4.534;2023-05-07T13:23:13;20.90;93.90
40253;DHT22;25972;51.854;4.534;2023-05-07T13:25:39;20.70;95.90
40253;DHT22;25972;51.854;4.534;2023-05-07T13:28:08;20.70;98.80
40253;DHT22;25972;51.854;4.534;2023-05-07T13:30:34;20.80;99.90
40253;DHT22;25972;51.854;4.534;2023-05-07T13:33:02;20.70;99.90
40253;DHT22;25972;51.854;4.534;2023-05-07T13:35:28;20.60;99.60
40253;DHT22;25972;51.854;4.534;2023-05-07T13:37:54;20.60;99.90
40253;DHT22;25972;51.854;4.534;2023-05-07T13:40:23;20.70;99.90
40253;DHT22;25972;51.854;4.534;2023-05-07T13:42:49;20.70;99.90
40253;DHT22;25972;51.854;4.534;2023-05-07T13:45:16;20.70;99.90
40253;DHT22;25972;51.854;4.534;2023-05-07T13:47:42;20.70;99.90
40253;DHT22;25972;51.854;4.534;2023-05-07T13:50:09;20.60;99.90
40253;DHT22;25972;51.854;4.534;2023-05-07T13:52:35;20.60;99.90
40253;DHT22;25972;51.854;4.534;2023-05-07T13:55:01;20.60;99.90
40253;DHT22;25972;51.854;4.534;2023-05-07T13:57:27;20.50;99.90
40253;DHT22;25972;51.854;4.534;2023-05-07T13:59:53;20.50;99.90
40253;DHT22;25972;51.854;4.534;2023-05-07T14:02:18;20.50;99.90
40253;DHT22;25972;51.854;4.534;2023-05-07T14:04:44;20.60;99.90
40253;DHT22;25972;51.854;4.534;2023-05-07T14:07:10;20.60;99.90
40253;DHT22;25972;51.854;4.534;2023-05-07T14:09:36;20.60;99.90
40253;DHT22;25972;51.854;4.534;2023-05-07T14:12:02;20.60;99.90
40253;DHT22;25972;51.854;4.534;2023-05-07T14:14:28;20.70;99.90
40253;DHT22;25972;51.854;4.534;2023-05-07T14:16:54;20.80;99.90
40253;DHT22;25972;51.854;4.534;2023-05-07T14:19:20;21.00;99.90
40253;DHT22;25972;51.854;4.534;2023-05-07T14:21:48;21.10;99.90
40253;DHT22;25972;51.854;4.534;2023-05-07T14:24:14;21.30;99.90
40253;DHT22;25972;51.854;4.534;2023-05-07T14:26:40;21.30;99.90
40253;DHT22;25972;51.854;4.534;2023-05-07T14:29:06;21.40;99.90
40253;DHT22;25972;51.854;4.534;2023-05-07T14:31:32;21.60;99.90
40253;DHT22;25972;51.854;4.534;2023-05-07T14:33:58;21.70;99.90
40253;DHT22;25972;51.854;4.534;2023-05-07T14:36:24;21.80;99.90
40253;DHT22;25972;51.854;4.534;2023-05-07T14:38:52;21.70;99.90
40253;DHT22;25972;51.854;4.534;2023-05-07T14:41:20;21.70;99.90
40253;DHT22;25972;51.854;4.534;2023-05-07T14:43:47;21.70;99.50
40253;DHT22;25972;51.854;4.534;2023-05-07T14:46:19;21.60;98.80
40253;DHT22;25972;51.854;4.534;2023-05-07T14:48:45;21.60;98.80
40253;DHT22;25972;51.854;4.534;2023-05-07T14:51:12;21.60;99.90
40253;DHT22;25972;51.854;4.534;2023-05-07T14:53:38;21.50;99.90
40253;DHT22;25972;51.854;4.534;2023-05-07T14:56:04;21.50;99.90
40253;DHT22;25972;51.854;4.534;2023-05-07T14:58:32;21.40;99.90
40253;DHT22;25972;51.854;4.534;2023-05-07T15:00:58;21.30;99.90
40253;DHT22;25972;51.854;4.534;2023-05-07T15:03:24;21.30;99.90
40253;DHT22;25972;51.854;4.534;2023-05-07T15:05:51;21.20;99.90
40253;DHT22;25972;51.854;4.534;2023-05-07T15:08:17;21.20;99.90
40253;DHT22;25972;51.854;4.534;2023-05-07T15:10:43;21.10;99.90
40253;DHT22;25972;51.854;4.534;2023-05-07T15:13:09;21.10;99.90
40253;DHT22;25972;51.854;4.534;2023-05-07T15:15:36;21.00;99.90
40253;DHT22;25972;51.854;4.534;2023-05-07T15:18:03;21.10;99.90
40253;DHT22;25972;51.854;4.534;2023-05-07T15:20:31;21.10;99.90
40253;DHT22;25972;51.854;4.534;2023-05-07T15:22:57;21.10;99.90
40253;DHT22;25972;51.854;4.534;2023-05-07T15:25:23;21.00;99.90
40253;DHT22;25972;51.854;4.534;2023-05-07T15:27:49;21.00;99.90
40253;DHT22;25972;51.854;4.534;2023-05-07T15:30:15;21.00;99.90
40253;DHT22;25972;51.854;4.534;2023-05-07T15:32:42;21.00;99.90
40253;DHT22;25972;51.854;4.534;2023-05-07T15:35:08;20.90;99.90
40253;DHT22;25972;51.854;4.534;2023-05-07T15:37:34;20.80;99.90
40253;DHT22;25972;51.854;4.534;2023-05-07T15:40:00;20.70;99.90
40253;DHT22;25972;51.854;4.534;2023-05-07T15:42:28;20.70;99.90
40253;DHT22;25972;51.854;4.534;2023-05-07T15:44:54;20.60;99.90
40253;DHT22;25972;51.854;4.534;2023-05-07T15:47:20;20.50;99.90
40253;DHT22;25972;51.854;4.534;2023-05-07T15:49:46;20.40;99.90